NCAR-RAP Real-Time Weather Data

Output produced by METARs form (06 May 2021  16:09 UTC)
found at http://weather.rap.ucar.edu/surface/
 
KD07 061556Z AUTO 00000KT 14/M01 A3028 RMK AO1 SLP264 T01391006
KD07 061456Z AUTO 34007KT 12/01 A3029 RMK AO1 SLP270 T01220011 50006
KD07 061356Z AUTO 33010KT 08/02 A3029 RMK AO1 SLP271 T00830022
KD07 061256Z AUTO 32008KT 05/02 A3029 RMK AO1 SLP272 T00500017 $
KD07 061156Z AUTO 29008KT 02/01 A3027 RMK AO1 SLP268 7//// T00220006 10039 20011 53002 $
KD07 061056Z AUTO 27006KT 02/01 A3027 RMK AO1 SLP266 T00220006 $
KD07 060956Z AUTO 24008KT 03/00 A3026 RMK AO1 SLP263 T00280000 $
KD07 060856Z AUTO 23009KT 03/00 A3026 RMK AO1 SLP264 T00280000 50000 $
KD07 060756Z AUTO 22009KT 03/01 A3026 RMK AO1 SLP264 T00330006 $
KD07 060656Z AUTO 21011KT 03/01 A3027 RMK AO1 SLP265 T00330006 401280011 $
KD07 060556Z AUTO 21012KT 01/M01 A3026 RMK AO1 SLP266 T00111011 10106 20011 50007 $
KD07 060456Z AUTO 18013KT 03/00 A3027 RMK AO1 SLP264 T00280000 $
KD07 060356Z AUTO 16010KT 04/00 A3026 RMK AO1 SLP261 T00440000 $
KD07 060256Z AUTO 16009KT 06/00 A3024 RMK AO1 SLP256 T00560000 53006 $